sensor_id;sensor_type;location;lat;lon;timestamp;P1;durP1;ratioP1;P2;durP2;ratioP2
53040;SDS011;39326;42.650;23.248;2023-01-15T00:01:41;27.70;;;20.43;;
53040;SDS011;39326;42.650;23.248;2023-01-15T00:04:06;24.63;;;19.53;;
53040;SDS011;39326;42.650;23.248;2023-01-15T00:06:36;25.17;;;20.23;;
53040;SDS011;39326;42.650;23.248;2023-01-15T00:09:04;25.70;;;18.00;;
53040;SDS011;39326;42.650;23.248;2023-01-15T00:11:30;24.73;;;19.00;;
53040;SDS011;39326;42.650;23.248;2023-01-15T00:13:55;22.73;;;17.53;;
53040;SDS011;39326;42.650;23.248;2023-01-15T00:16:21;22.77;;;17.00;;
53040;SDS011;39326;42.650;23.248;2023-01-15T00:21:16;21.80;;;17.37;;
53040;SDS011;39326;42.650;23.248;2023-01-15T00:23:42;23.30;;;18.33;;
53040;SDS011;39326;42.650;23.248;2023-01-15T00:26:27;20.20;;;16.33;;
53040;SDS011;39326;42.650;23.248;2023-01-15T00:29:12;22.47;;;16.87;;
53040;SDS011;39326;42.650;23.248;2023-01-15T00:31:37;20.17;;;16.77;;
53040;SDS011;39326;42.650;23.248;2023-01-15T00:34:03;22.20;;;17.63;;
53040;SDS011;39326;42.650;23.248;2023-01-15T00:36:28;23.20;;;18.07;;
53040;SDS011;39326;42.650;23.248;2023-01-15T00:38:54;23.13;;;18.13;;
53040;SDS011;39326;42.650;23.248;2023-01-15T00:41:19;22.60;;;17.70;;
53040;SDS011;39326;42.650;23.248;2023-01-15T00:43:45;21.43;;;17.57;;
53040;SDS011;39326;42.650;23.248;2023-01-15T00:46:11;22.20;;;18.17;;
53040;SDS011;39326;42.650;23.248;2023-01-15T00:48:36;24.70;;;19.23;;
53040;SDS011;39326;42.650;23.248;2023-01-15T00:51:02;21.40;;;17.97;;
53040;SDS011;39326;42.650;23.248;2023-01-15T00:53:28;22.87;;;17.47;;
53040;SDS011;39326;42.650;23.248;2023-01-15T00:55:54;25.23;;;18.63;;
53040;SDS011;39326;42.650;23.248;2023-01-15T00:58:20;22.40;;;17.53;;
53040;SDS011;39326;42.650;23.248;2023-01-15T01:00:45;25.90;;;18.97;;
53040;SDS011;39326;42.650;23.248;2023-01-15T01:03:10;23.23;;;18.87;;
53040;SDS011;39326;42.650;23.248;2023-01-15T01:05:36;22.93;;;18.10;;
53040;SDS011;39326;42.650;23.248;2023-01-15T01:08:01;22.20;;;18.57;;
53040;SDS011;39326;42.650;23.248;2023-01-15T01:10:27;24.80;;;20.17;;
53040;SDS011;39326;42.650;23.248;2023-01-15T01:12:52;24.70;;;19.13;;
53040;SDS011;39326;42.650;23.248;2023-01-15T01:15:19;26.70;;;19.83;;
53040;SDS011;39326;42.650;23.248;2023-01-15T01:17:44;25.67;;;19.80;;
53040;SDS011;39326;42.650;23.248;2023-01-15T01:20:13;23.47;;;18.50;;
53040;SDS011;39326;42.650;23.248;2023-01-15T01:22:39;25.23;;;19.13;;
53040;SDS011;39326;42.650;23.248;2023-01-15T01:25:05;23.07;;;17.47;;
53040;SDS011;39326;42.650;23.248;2023-01-15T01:27:31;23.27;;;18.47;;
53040;SDS011;39326;42.650;23.248;2023-01-15T01:29:56;25.57;;;18.43;;
53040;SDS011;39326;42.650;23.248;2023-01-15T01:32:22;24.90;;;18.27;;
53040;SDS011;39326;42.650;23.248;2023-01-15T01:34:47;22.90;;;18.67;;
53040;SDS011;39326;42.650;23.248;2023-01-15T01:37:13;22.87;;;18.23;;
53040;SDS011;39326;42.650;23.248;2023-01-15T01:39:38;23.73;;;18.83;;
53040;SDS011;39326;42.650;23.248;2023-01-15T01:42:07;25.60;;;20.90;;
53040;SDS011;39326;42.650;23.248;2023-01-15T01:47:14;25.00;;;19.23;;
53040;SDS011;39326;42.650;23.248;2023-01-15T01:50:01;26.30;;;18.80;;
53040;SDS011;39326;42.650;23.248;2023-01-15T01:52:41;25.57;;;19.33;;
53040;SDS011;39326;42.650;23.248;2023-01-15T01:55:19;23.03;;;17.83;;
53040;SDS011;39326;42.650;23.248;2023-01-15T01:57:47;25.00;;;19.07;;
53040;SDS011;39326;42.650;23.248;2023-01-15T02:00:15;24.50;;;18.07;;
53040;SDS011;39326;42.650;23.248;2023-01-15T02:02:42;21.87;;;18.00;;
53040;SDS011;39326;42.650;23.248;2023-01-15T02:05:09;22.97;;;17.27;;
53040;SDS011;39326;42.650;23.248;2023-01-15T02:07:40;22.93;;;17.63;;
53040;SDS011;39326;42.650;23.248;2023-01-15T02:10:05;19.67;;;15.33;;
53040;SDS011;39326;42.650;23.248;2023-01-15T02:12:36;18.57;;;15.87;;
53040;SDS011;39326;42.650;23.248;2023-01-15T02:15:14;16.90;;;13.33;;
53040;SDS011;39326;42.650;23.248;2023-01-15T02:17:48;14.80;;;13.10;;
53040;SDS011;39326;42.650;23.248;2023-01-15T02:20:47;12.63;;;11.20;;
53040;SDS011;39326;42.650;23.248;2023-01-15T02:23:26;12.10;;;10.03;;
53040;SDS011;39326;42.650;23.248;2023-01-15T02:28:41;15.70;;;10.67;;
53040;SDS011;39326;42.650;23.248;2023-01-15T02:33:46;11.33;;;9.40;;
53040;SDS011;39326;42.650;23.248;2023-01-15T02:36:17;10.93;;;9.30;;
53040;SDS011;39326;42.650;23.248;2023-01-15T02:38:46;12.97;;;10.10;;
53040;SDS011;39326;42.650;23.248;2023-01-15T02:41:13;11.83;;;10.40;;
53040;SDS011;39326;42.650;23.248;2023-01-15T02:43:42;10.33;;;8.90;;
53040;SDS011;39326;42.650;23.248;2023-01-15T02:46:12;11.73;;;9.27;;
53040;SDS011;39326;42.650;23.248;2023-01-15T02:48:39;10.77;;;8.80;;
53040;SDS011;39326;42.650;23.248;2023-01-15T02:51:10;9.70;;;8.63;;
53040;SDS011;39326;42.650;23.248;2023-01-15T02:53:40;9.80;;;8.80;;
53040;SDS011;39326;42.650;23.248;2023-01-15T02:56:09;9.43;;;8.37;;
53040;SDS011;39326;42.650;23.248;2023-01-15T02:58:37;11.30;;;8.70;;
53040;SDS011;39326;42.650;23.248;2023-01-15T03:01:10;9.87;;;7.50;;
53040;SDS011;39326;42.650;23.248;2023-01-15T03:06:44;10.33;;;9.23;;
53040;SDS011;39326;42.650;23.248;2023-01-15T03:09:13;12.37;;;9.43;;
53040;SDS011;39326;42.650;23.248;2023-01-15T03:11:43;10.83;;;8.53;;
53040;SDS011;39326;42.650;23.248;2023-01-15T03:14:21;10.20;;;8.50;;
53040;SDS011;39326;42.650;23.248;2023-01-15T03:16:55;8.90;;;8.00;;
53040;SDS011;39326;42.650;23.248;2023-01-15T03:19:44;8.87;;;7.97;;
53040;SDS011;39326;42.650;23.248;2023-01-15T03:22:22;8.07;;;7.27;;
53040;SDS011;39326;42.650;23.248;2023-01-15T03:27:30;7.73;;;6.87;;
53040;SDS011;39326;42.650;23.248;2023-01-15T03:30:00;8.30;;;7.40;;
53040;SDS011;39326;42.650;23.248;2023-01-15T03:32:30;9.70;;;7.93;;
53040;SDS011;39326;42.650;23.248;2023-01-15T03:34:56;8.97;;;7.67;;
53040;SDS011;39326;42.650;23.248;2023-01-15T03:37:21;9.50;;;8.57;;
53040;SDS011;39326;42.650;23.248;2023-01-15T03:39:49;9.40;;;7.87;;
53040;SDS011;39326;42.650;23.248;2023-01-15T03:42:26;9.20;;;8.07;;
53040;SDS011;39326;42.650;23.248;2023-01-15T03:53:14;12.03;;;9.03;;
53040;SDS011;39326;42.650;23.248;2023-01-15T03:55:46;9.77;;;8.67;;
53040;SDS011;39326;42.650;23.248;2023-01-15T03:58:23;9.30;;;8.30;;
53040;SDS011;39326;42.650;23.248;2023-01-15T04:00:54;11.10;;;9.20;;
53040;SDS011;39326;42.650;23.248;2023-01-15T04:03:23;9.67;;;8.67;;
53040;SDS011;39326;42.650;23.248;2023-01-15T04:05:51;10.33;;;8.50;;
53040;SDS011;39326;42.650;23.248;2023-01-15T04:08:20;9.03;;;8.13;;
53040;SDS011;39326;42.650;23.248;2023-01-15T04:10:56;9.50;;;7.50;;
53040;SDS011;39326;42.650;23.248;2023-01-15T04:13:24;8.87;;;7.97;;
53040;SDS011;39326;42.650;23.248;2023-01-15T04:15:50;8.93;;;8.03;;
53040;SDS011;39326;42.650;23.248;2023-01-15T04:18:16;9.87;;;8.83;;
53040;SDS011;39326;42.650;23.248;2023-01-15T04:20:41;9.27;;;8.33;;
53040;SDS011;39326;42.650;23.248;2023-01-15T04:23:08;10.97;;;8.80;;
53040;SDS011;39326;42.650;23.248;2023-01-15T04:25:34;9.90;;;8.63;;
53040;SDS011;39326;42.650;23.248;2023-01-15T04:28:00;11.17;;;9.43;;
53040;SDS011;39326;42.650;23.248;2023-01-15T04:30:25;11.87;;;10.60;;
53040;SDS011;39326;42.650;23.248;2023-01-15T04:32:51;12.20;;;10.60;;
53040;SDS011;39326;42.650;23.248;2023-01-15T04:35:16;13.10;;;10.93;;
53040;SDS011;39326;42.650;23.248;2023-01-15T04:37:43;19.13;;;14.17;;
53040;SDS011;39326;42.650;23.248;2023-01-15T04:40:09;16.33;;;13.17;;
53040;SDS011;39326;42.650;23.248;2023-01-15T04:42:58;17.00;;;13.20;;
53040;SDS011;39326;42.650;23.248;2023-01-15T04:45:43;16.27;;;14.30;;
53040;SDS011;39326;42.650;23.248;2023-01-15T04:48:09;18.43;;;14.70;;
53040;SDS011;39326;42.650;23.248;2023-01-15T04:50:34;17.20;;;14.87;;
53040;SDS011;39326;42.650;23.248;2023-01-15T04:53:00;20.30;;;15.17;;
53040;SDS011;39326;42.650;23.248;2023-01-15T04:55:25;17.57;;;14.87;;
53040;SDS011;39326;42.650;23.248;2023-01-15T04:57:51;16.57;;;14.17;;
53040;SDS011;39326;42.650;23.248;2023-01-15T05:00:16;18.37;;;15.40;;
53040;SDS011;39326;42.650;23.248;2023-01-15T05:02:42;17.07;;;13.93;;
53040;SDS011;39326;42.650;23.248;2023-01-15T05:05:07;14.03;;;12.30;;
53040;SDS011;39326;42.650;23.248;2023-01-15T05:07:33;15.40;;;12.70;;
53040;SDS011;39326;42.650;23.248;2023-01-15T05:09:58;14.07;;;11.17;;
53040;SDS011;39326;42.650;23.248;2023-01-15T05:12:24;12.27;;;10.50;;
53040;SDS011;39326;42.650;23.248;2023-01-15T05:14:50;14.43;;;11.33;;
53040;SDS011;39326;42.650;23.248;2023-01-15T05:17:15;11.83;;;10.57;;
53040;SDS011;39326;42.650;23.248;2023-01-15T05:19:41;12.53;;;10.30;;
53040;SDS011;39326;42.650;23.248;2023-01-15T05:22:06;13.70;;;10.67;;
53040;SDS011;39326;42.650;23.248;2023-01-15T05:24:32;13.53;;;11.93;;
53040;SDS011;39326;42.650;23.248;2023-01-15T05:26:57;13.27;;;11.60;;
53040;SDS011;39326;42.650;23.248;2023-01-15T05:29:23;13.63;;;11.53;;
53040;SDS011;39326;42.650;23.248;2023-01-15T05:31:48;15.67;;;12.27;;
53040;SDS011;39326;42.650;23.248;2023-01-15T05:34:14;16.17;;;12.20;;
53040;SDS011;39326;42.650;23.248;2023-01-15T05:36:39;12.97;;;11.17;;
53040;SDS011;39326;42.650;23.248;2023-01-15T05:39:05;14.77;;;10.90;;
53040;SDS011;39326;42.650;23.248;2023-01-15T05:41:31;13.37;;;11.93;;
53040;SDS011;39326;42.650;23.248;2023-01-15T05:44:19;25.50;;;23.10;;
53040;SDS011;39326;42.650;23.248;2023-01-15T05:46:45;16.90;;;15.20;;
53040;SDS011;39326;42.650;23.248;2023-01-15T05:49:15;14.93;;;11.73;;
53040;SDS011;39326;42.650;23.248;2023-01-15T05:51:42;12.97;;;9.80;;
53040;SDS011;39326;42.650;23.248;2023-01-15T05:54:11;11.17;;;9.77;;
53040;SDS011;39326;42.650;23.248;2023-01-15T05:56:38;10.10;;;9.00;;
53040;SDS011;39326;42.650;23.248;2023-01-15T05:59:05;11.10;;;9.77;;
53040;SDS011;39326;42.650;23.248;2023-01-15T06:01:31;9.80;;;8.10;;
53040;SDS011;39326;42.650;23.248;2023-01-15T06:03:57;8.77;;;7.87;;
53040;SDS011;39326;42.650;23.248;2023-01-15T06:06:24;9.17;;;7.87;;
53040;SDS011;39326;42.650;23.248;2023-01-15T06:08:49;8.63;;;7.30;;
53040;SDS011;39326;42.650;23.248;2023-01-15T06:11:15;8.87;;;7.97;;
53040;SDS011;39326;42.650;23.248;2023-01-15T06:13:40;12.07;;;10.67;;
53040;SDS011;39326;42.650;23.248;2023-01-15T06:16:06;9.43;;;8.43;;
53040;SDS011;39326;42.650;23.248;2023-01-15T06:18:35;9.63;;;8.00;;
53040;SDS011;39326;42.650;23.248;2023-01-15T06:21:04;9.10;;;7.93;;
53040;SDS011;39326;42.650;23.248;2023-01-15T06:23:33;8.20;;;7.40;;
53040;SDS011;39326;42.650;23.248;2023-01-15T06:26:04;8.37;;;7.37;;
53040;SDS011;39326;42.650;23.248;2023-01-15T06:28:32;9.63;;;8.60;;
53040;SDS011;39326;42.650;23.248;2023-01-15T06:30:57;9.77;;;8.67;;
53040;SDS011;39326;42.650;23.248;2023-01-15T06:33:23;8.23;;;7.40;;
53040;SDS011;39326;42.650;23.248;2023-01-15T06:35:49;8.30;;;7.40;;
53040;SDS011;39326;42.650;23.248;2023-01-15T06:38:15;7.90;;;7.10;;
53040;SDS011;39326;42.650;23.248;2023-01-15T06:40:40;9.87;;;8.47;;
53040;SDS011;39326;42.650;23.248;2023-01-15T06:43:05;10.80;;;8.03;;
53040;SDS011;39326;42.650;23.248;2023-01-15T06:45:52;10.43;;;8.57;;
53040;SDS011;39326;42.650;23.248;2023-01-15T06:48:49;10.13;;;9.07;;
53040;SDS011;39326;42.650;23.248;2023-01-15T06:51:15;10.47;;;9.37;;
53040;SDS011;39326;42.650;23.248;2023-01-15T06:53:44;11.63;;;9.40;;
53040;SDS011;39326;42.650;23.248;2023-01-15T06:56:11;11.03;;;9.20;;
53040;SDS011;39326;42.650;23.248;2023-01-15T06:58:38;11.57;;;9.80;;
53040;SDS011;39326;42.650;23.248;2023-01-15T07:01:10;12.23;;;10.33;;
53040;SDS011;39326;42.650;23.248;2023-01-15T07:03:38;13.23;;;9.67;;
53040;SDS011;39326;42.650;23.248;2023-01-15T07:06:07;11.97;;;9.40;;
53040;SDS011;39326;42.650;23.248;2023-01-15T07:08:34;10.77;;;9.63;;
53040;SDS011;39326;42.650;23.248;2023-01-15T07:11:01;11.43;;;10.13;;
53040;SDS011;39326;42.650;23.248;2023-01-15T07:13:31;10.50;;;9.23;;
53040;SDS011;39326;42.650;23.248;2023-01-15T07:15:57;10.67;;;9.57;;
53040;SDS011;39326;42.650;23.248;2023-01-15T07:18:24;10.83;;;9.30;;
53040;SDS011;39326;42.650;23.248;2023-01-15T07:20:53;10.40;;;9.13;;
53040;SDS011;39326;42.650;23.248;2023-01-15T07:23:20;9.97;;;8.97;;
53040;SDS011;39326;42.650;23.248;2023-01-15T07:25:45;10.57;;;9.47;;
53040;SDS011;39326;42.650;23.248;2023-01-15T07:28:11;12.60;;;9.97;;
53040;SDS011;39326;42.650;23.248;2023-01-15T07:30:36;10.67;;;9.57;;
53040;SDS011;39326;42.650;23.248;2023-01-15T07:33:02;10.17;;;9.10;;
53040;SDS011;39326;42.650;23.248;2023-01-15T07:35:27;13.97;;;10.50;;
53040;SDS011;39326;42.650;23.248;2023-01-15T07:37:53;12.27;;;10.97;;
53040;SDS011;39326;42.650;23.248;2023-01-15T07:40:19;14.80;;;11.80;;
53040;SDS011;39326;42.650;23.248;2023-01-15T07:42:45;12.23;;;10.53;;
53040;SDS011;39326;42.650;23.248;2023-01-15T07:45:29;12.03;;;10.83;;
53040;SDS011;39326;42.650;23.248;2023-01-15T07:48:29;13.43;;;11.93;;
53040;SDS011;39326;42.650;23.248;2023-01-15T07:51:13;12.77;;;10.93;;
53040;SDS011;39326;42.650;23.248;2023-01-15T07:53:39;11.57;;;9.77;;
53040;SDS011;39326;42.650;23.248;2023-01-15T07:56:04;12.13;;;10.07;;
53040;SDS011;39326;42.650;23.248;2023-01-15T07:58:30;11.57;;;10.37;;
53040;SDS011;39326;42.650;23.248;2023-01-15T08:00:55;10.77;;;9.57;;
53040;SDS011;39326;42.650;23.248;2023-01-15T08:03:21;10.60;;;9.50;;
53040;SDS011;39326;42.650;23.248;2023-01-15T08:05:46;12.03;;;10.70;;
53040;SDS011;39326;42.650;23.248;2023-01-15T08:08:15;10.37;;;8.73;;
53040;SDS011;39326;42.650;23.248;2023-01-15T08:10:41;11.60;;;10.37;;
53040;SDS011;39326;42.650;23.248;2023-01-15T08:13:25;11.57;;;9.87;;
53040;SDS011;39326;42.650;23.248;2023-01-15T08:16:09;13.47;;;10.30;;
53040;SDS011;39326;42.650;23.248;2023-01-15T08:18:35;12.13;;;10.63;;
53040;SDS011;39326;42.650;23.248;2023-01-15T08:21:01;15.43;;;10.93;;
53040;SDS011;39326;42.650;23.248;2023-01-15T08:23:27;12.60;;;11.23;;
53040;SDS011;39326;42.650;23.248;2023-01-15T08:25:52;12.20;;;10.90;;
53040;SDS011;39326;42.650;23.248;2023-01-15T08:28:17;11.57;;;9.83;;
53040;SDS011;39326;42.650;23.248;2023-01-15T08:30:43;11.40;;;9.77;;
53040;SDS011;39326;42.650;23.248;2023-01-15T08:33:08;11.57;;;10.37;;
53040;SDS011;39326;42.650;23.248;2023-01-15T08:35:34;10.53;;;9.33;;
53040;SDS011;39326;42.650;23.248;2023-01-15T08:38:03;10.57;;;9.40;;
53040;SDS011;39326;42.650;23.248;2023-01-15T08:40:30;11.07;;;9.13;;
53040;SDS011;39326;42.650;23.248;2023-01-15T08:42:55;9.17;;;8.30;;
53040;SDS011;39326;42.650;23.248;2023-01-15T08:45:21;9.70;;;8.53;;
53040;SDS011;39326;42.650;23.248;2023-01-15T08:47:46;9.97;;;8.93;;
53040;SDS011;39326;42.650;23.248;2023-01-15T08:50:11;11.83;;;10.03;;
53040;SDS011;39326;42.650;23.248;2023-01-15T08:52:37;10.53;;;9.43;;
53040;SDS011;39326;42.650;23.248;2023-01-15T08:55:03;12.57;;;11.33;;
53040;SDS011;39326;42.650;23.248;2023-01-15T08:57:29;12.87;;;10.77;;
53040;SDS011;39326;42.650;23.248;2023-01-15T08:59:55;12.17;;;10.60;;
53040;SDS011;39326;42.650;23.248;2023-01-15T09:02:20;12.20;;;10.90;;
53040;SDS011;39326;42.650;23.248;2023-01-15T09:04:46;14.43;;;11.77;;
53040;SDS011;39326;42.650;23.248;2023-01-15T09:07:11;12.33;;;10.80;;
53040;SDS011;39326;42.650;23.248;2023-01-15T09:09:37;13.63;;;12.13;;
53040;SDS011;39326;42.650;23.248;2023-01-15T09:12:02;14.47;;;12.07;;
53040;SDS011;39326;42.650;23.248;2023-01-15T09:14:28;13.40;;;11.83;;
53040;SDS011;39326;42.650;23.248;2023-01-15T09:16:54;14.80;;;11.50;;
53040;SDS011;39326;42.650;23.248;2023-01-15T09:19:19;12.20;;;10.70;;
53040;SDS011;39326;42.650;23.248;2023-01-15T09:21:45;12.50;;;11.20;;
53040;SDS011;39326;42.650;23.248;2023-01-15T09:24:11;12.83;;;10.53;;
53040;SDS011;39326;42.650;23.248;2023-01-15T09:26:37;12.50;;;11.20;;
53040;SDS011;39326;42.650;23.248;2023-01-15T09:29:04;11.70;;;10.50;;
53040;SDS011;39326;42.650;23.248;2023-01-15T09:31:30;12.47;;;10.93;;
53040;SDS011;39326;42.650;23.248;2023-01-15T09:33:56;12.73;;;11.43;;
53040;SDS011;39326;42.650;23.248;2023-01-15T09:36:24;12.33;;;11.00;;
53040;SDS011;39326;42.650;23.248;2023-01-15T09:38:52;13.10;;;11.63;;
53040;SDS011;39326;42.650;23.248;2023-01-15T09:41:18;14.13;;;12.73;;
53040;SDS011;39326;42.650;23.248;2023-01-15T09:57:21;12.27;;;10.97;;
53040;SDS011;39326;42.650;23.248;2023-01-15T09:59:49;13.73;;;12.30;;
53040;SDS011;39326;42.650;23.248;2023-01-15T10:04:55;14.57;;;13.17;;
53040;SDS011;39326;42.650;23.248;2023-01-15T10:07:28;13.87;;;12.47;;
53040;SDS011;39326;42.650;23.248;2023-01-15T10:10:17;12.93;;;11.63;;
53040;SDS011;39326;42.650;23.248;2023-01-15T10:12:47;15.00;;;12.80;;
53040;SDS011;39326;42.650;23.248;2023-01-15T10:17:49;14.17;;;12.67;;
53040;SDS011;39326;42.650;23.248;2023-01-15T10:25:34;15.30;;;12.87;;
53040;SDS011;39326;42.650;23.248;2023-01-15T10:28:14;14.40;;;12.80;;
53040;SDS011;39326;42.650;23.248;2023-01-15T10:30:52;15.30;;;11.53;;
53040;SDS011;39326;42.650;23.248;2023-01-15T10:33:24;14.60;;;13.00;;
53040;SDS011;39326;42.650;23.248;2023-01-15T10:36:19;16.07;;;13.57;;
53040;SDS011;39326;42.650;23.248;2023-01-15T10:38:57;15.67;;;12.90;;
53040;SDS011;39326;42.650;23.248;2023-01-15T10:46:54;16.67;;;13.33;;
53040;SDS011;39326;42.650;23.248;2023-01-15T10:49:25;15.47;;;13.30;;
53040;SDS011;39326;42.650;23.248;2023-01-15T10:54:32;18.90;;;16.27;;
53040;SDS011;39326;42.650;23.248;2023-01-15T10:57:08;17.37;;;14.80;;
53040;SDS011;39326;42.650;23.248;2023-01-15T10:59:58;19.60;;;14.70;;
53040;SDS011;39326;42.650;23.248;2023-01-15T11:05:00;16.57;;;13.97;;
53040;SDS011;39326;42.650;23.248;2023-01-15T11:07:46;17.97;;;15.37;;
53040;SDS011;39326;42.650;23.248;2023-01-15T11:10:14;16.47;;;14.17;;
53040;SDS011;39326;42.650;23.248;2023-01-15T11:15:37;16.07;;;14.37;;
53040;SDS011;39326;42.650;23.248;2023-01-15T11:18:23;17.17;;;15.37;;
53040;SDS011;39326;42.650;23.248;2023-01-15T11:21:20;16.33;;;13.33;;
53040;SDS011;39326;42.650;23.248;2023-01-15T11:23:47;16.77;;;14.97;;
53040;SDS011;39326;42.650;23.248;2023-01-15T11:26:19;19.67;;;17.07;;
53040;SDS011;39326;42.650;23.248;2023-01-15T11:28:47;19.73;;;17.43;;
53040;SDS011;39326;42.650;23.248;2023-01-15T11:31:13;18.03;;;16.10;;
53040;SDS011;39326;42.650;23.248;2023-01-15T11:33:42;19.37;;;16.27;;
53040;SDS011;39326;42.650;23.248;2023-01-15T11:36:19;19.73;;;15.63;;
53040;SDS011;39326;42.650;23.248;2023-01-15T11:38:47;19.70;;;17.03;;
53040;SDS011;39326;42.650;23.248;2023-01-15T11:44:15;17.23;;;15.43;;
53040;SDS011;39326;42.650;23.248;2023-01-15T11:47:01;19.73;;;16.80;;
53040;SDS011;39326;42.650;23.248;2023-01-15T11:49:49;18.27;;;16.40;;
53040;SDS011;39326;42.650;23.248;2023-01-15T11:52:36;18.20;;;16.37;;
53040;SDS011;39326;42.650;23.248;2023-01-15T11:55:11;18.23;;;16.47;;
53040;SDS011;39326;42.650;23.248;2023-01-15T11:57:39;18.20;;;15.40;;
53040;SDS011;39326;42.650;23.248;2023-01-15T12:00:06;15.43;;;12.83;;
53040;SDS011;39326;42.650;23.248;2023-01-15T12:02:43;18.60;;;15.63;;
53040;SDS011;39326;42.650;23.248;2023-01-15T12:05:14;16.67;;;14.93;;
53040;SDS011;39326;42.650;23.248;2023-01-15T12:07:43;16.43;;;14.73;;
53040;SDS011;39326;42.650;23.248;2023-01-15T12:20:34;18.07;;;15.33;;
53040;SDS011;39326;42.650;23.248;2023-01-15T12:26:22;16.60;;;14.93;;
53040;SDS011;39326;42.650;23.248;2023-01-15T12:31:24;15.83;;;14.23;;
53040;SDS011;39326;42.650;23.248;2023-01-15T12:34:16;15.63;;;14.10;;
53040;SDS011;39326;42.650;23.248;2023-01-15T12:36:47;14.83;;;13.43;;
53040;SDS011;39326;42.650;23.248;2023-01-15T12:41:57;14.73;;;13.23;;
53040;SDS011;39326;42.650;23.248;2023-01-15T12:47:27;15.20;;;13.80;;
53040;SDS011;39326;42.650;23.248;2023-01-15T12:49:56;15.57;;;13.90;;
53040;SDS011;39326;42.650;23.248;2023-01-15T12:52:28;14.73;;;13.23;;
53040;SDS011;39326;42.650;23.248;2023-01-15T12:57:32;15.17;;;13.53;;
53040;SDS011;39326;42.650;23.248;2023-01-15T13:00:02;15.53;;;14.03;;
53040;SDS011;39326;42.650;23.248;2023-01-15T13:05:42;14.73;;;13.10;;
53040;SDS011;39326;42.650;23.248;2023-01-15T13:08:28;13.90;;;12.57;;
53040;SDS011;39326;42.650;23.248;2023-01-15T13:11:01;14.70;;;13.30;;
53040;SDS011;39326;42.650;23.248;2023-01-15T13:13:31;13.40;;;12.20;;
53040;SDS011;39326;42.650;23.248;2023-01-15T13:22:14;13.23;;;12.07;;
53040;SDS011;39326;42.650;23.248;2023-01-15T13:32:54;15.00;;;13.60;;
53040;SDS011;39326;42.650;23.248;2023-01-15T13:37:53;14.23;;;12.83;;
53040;SDS011;39326;42.650;23.248;2023-01-15T13:42:58;13.93;;;12.63;;
53040;SDS011;39326;42.650;23.248;2023-01-15T13:45:31;15.03;;;13.70;;
53040;SDS011;39326;42.650;23.248;2023-01-15T13:48:13;15.57;;;13.93;;
53040;SDS011;39326;42.650;23.248;2023-01-15T13:50:41;14.37;;;12.97;;
53040;SDS011;39326;42.650;23.248;2023-01-15T13:53:33;19.47;;;17.70;;
53040;SDS011;39326;42.650;23.248;2023-01-15T13:56:07;16.67;;;15.13;;
53040;SDS011;39326;42.650;23.248;2023-01-15T13:58:36;16.60;;;15.00;;
53040;SDS011;39326;42.650;23.248;2023-01-15T14:06:36;13.37;;;11.97;;
53040;SDS011;39326;42.650;23.248;2023-01-15T14:19:53;14.00;;;12.63;;
53040;SDS011;39326;42.650;23.248;2023-01-15T14:28:26;13.00;;;11.80;;
53040;SDS011;39326;42.650;23.248;2023-01-15T14:36:38;12.37;;;11.23;;
53040;SDS011;39326;42.650;23.248;2023-01-15T14:39:45;15.17;;;13.63;;
53040;SDS011;39326;42.650;23.248;2023-01-15T14:42:06;13.03;;;11.43;;
53040;SDS011;39326;42.650;23.248;2023-01-15T14:44:55;13.97;;;12.57;;
53040;SDS011;39326;42.650;23.248;2023-01-15T14:47:28;11.67;;;10.57;;
53040;SDS011;39326;42.650;23.248;2023-01-15T14:50:20;12.33;;;11.13;;
53040;SDS011;39326;42.650;23.248;2023-01-15T14:55:38;10.27;;;9.27;;
53040;SDS011;39326;42.650;23.248;2023-01-15T14:58:35;12.17;;;10.73;;
53040;SDS011;39326;42.650;23.248;2023-01-15T15:06:50;16.33;;;14.93;;
53040;SDS011;39326;42.650;23.248;2023-01-15T15:09:28;15.60;;;14.10;;
53040;SDS011;39326;42.650;23.248;2023-01-15T15:15:04;11.53;;;10.40;;
53040;SDS011;39326;42.650;23.248;2023-01-15T15:29:05;13.10;;;11.87;;
53040;SDS011;39326;42.650;23.248;2023-01-15T15:31:36;21.07;;;19.20;;
53040;SDS011;39326;42.650;23.248;2023-01-15T15:34:06;19.73;;;18.03;;
53040;SDS011;39326;42.650;23.248;2023-01-15T15:36:36;17.70;;;15.87;;
53040;SDS011;39326;42.650;23.248;2023-01-15T15:39:03;26.27;;;23.90;;
53040;SDS011;39326;42.650;23.248;2023-01-15T15:41:40;18.23;;;16.43;;
53040;SDS011;39326;42.650;23.248;2023-01-15T15:44:34;16.93;;;15.43;;
53040;SDS011;39326;42.650;23.248;2023-01-15T15:47:23;17.73;;;16.00;;
53040;SDS011;39326;42.650;23.248;2023-01-15T15:50:22;17.73;;;15.87;;
53040;SDS011;39326;42.650;23.248;2023-01-15T15:52:49;19.47;;;17.80;;
53040;SDS011;39326;42.650;23.248;2023-01-15T15:55:16;19.17;;;17.17;;
53040;SDS011;39326;42.650;23.248;2023-01-15T15:57:43;18.67;;;16.77;;
53040;SDS011;39326;42.650;23.248;2023-01-15T16:00:15;15.30;;;13.77;;
53040;SDS011;39326;42.650;23.248;2023-01-15T16:02:49;25.17;;;22.87;;
53040;SDS011;39326;42.650;23.248;2023-01-15T16:05:20;17.67;;;15.97;;
53040;SDS011;39326;42.650;23.248;2023-01-15T16:07:48;22.43;;;20.43;;
53040;SDS011;39326;42.650;23.248;2023-01-15T16:12:52;17.60;;;15.80;;
53040;SDS011;39326;42.650;23.248;2023-01-15T16:15:22;19.70;;;16.73;;
53040;SDS011;39326;42.650;23.248;2023-01-15T16:17:53;17.13;;;15.37;;
53040;SDS011;39326;42.650;23.248;2023-01-15T16:20:20;20.23;;;18.23;;
53040;SDS011;39326;42.650;23.248;2023-01-15T16:22:47;22.77;;;20.37;;
53040;SDS011;39326;42.650;23.248;2023-01-15T16:25:21;19.90;;;17.87;;
53040;SDS011;39326;42.650;23.248;2023-01-15T16:27:49;20.73;;;18.67;;
53040;SDS011;39326;42.650;23.248;2023-01-15T16:30:16;21.50;;;19.33;;
53040;SDS011;39326;42.650;23.248;2023-01-15T16:32:42;16.17;;;14.47;;
53040;SDS011;39326;42.650;23.248;2023-01-15T16:35:16;22.40;;;19.90;;
53040;SDS011;39326;42.650;23.248;2023-01-15T16:37:50;18.63;;;16.63;;
53040;SDS011;39326;42.650;23.248;2023-01-15T16:42:58;18.67;;;16.70;;
53040;SDS011;39326;42.650;23.248;2023-01-15T16:45:33;20.63;;;18.37;;
53040;SDS011;39326;42.650;23.248;2023-01-15T16:50:46;16.77;;;14.80;;
53040;SDS011;39326;42.650;23.248;2023-01-15T16:53:46;23.93;;;21.43;;
53040;SDS011;39326;42.650;23.248;2023-01-15T16:56:22;17.33;;;15.50;;
53040;SDS011;39326;42.650;23.248;2023-01-15T16:59:04;33.87;;;30.37;;
53040;SDS011;39326;42.650;23.248;2023-01-15T17:01:43;23.23;;;20.60;;
53040;SDS011;39326;42.650;23.248;2023-01-15T17:04:29;36.33;;;31.00;;
53040;SDS011;39326;42.650;23.248;2023-01-15T17:06:59;20.20;;;17.83;;
53040;SDS011;39326;42.650;23.248;2023-01-15T17:09:29;16.27;;;14.47;;
53040;SDS011;39326;42.650;23.248;2023-01-15T17:11:57;25.57;;;21.10;;
53040;SDS011;39326;42.650;23.248;2023-01-15T17:14:30;22.83;;;18.43;;
53040;SDS011;39326;42.650;23.248;2023-01-15T17:19:53;37.10;;;31.43;;
53040;SDS011;39326;42.650;23.248;2023-01-15T17:22:22;53.60;;;39.53;;
53040;SDS011;39326;42.650;23.248;2023-01-15T17:24:56;99.03;;;74.77;;
53040;SDS011;39326;42.650;23.248;2023-01-15T17:27:23;256.30;;;201.23;;